sensor_id;sensor_type;location;lat;lon;timestamp;temperature;humidity
7942;HTU21D;4016;50.758;7.150;2023-10-13T00:01:16;17.03;118.99
7942;HTU21D;4016;50.758;7.150;2023-10-13T00:06:16;17.11;118.99
7942;HTU21D;4016;50.758;7.150;2023-10-13T00:11:18;17.29;118.99
7942;HTU21D;4016;50.758;7.150;2023-10-13T00:16:20;17.36;118.99
7942;HTU21D;4016;50.758;7.150;2023-10-13T00:21:21;17.28;118.99
7942;HTU21D;4016;50.758;7.150;2023-10-13T00:26:36;17.24;118.99
7942;HTU21D;4016;50.758;7.150;2023-10-13T00:31:38;17.21;118.99
7942;HTU21D;4016;50.758;7.150;2023-10-13T00:36:42;16.98;118.99
7942;HTU21D;4016;50.758;7.150;2023-10-13T00:41:49;17.23;118.99
7942;HTU21D;4016;50.758;7.150;2023-10-13T00:46:52;17.17;118.99
7942;HTU21D;4016;50.758;7.150;2023-10-13T00:51:56;17.16;118.99
7942;HTU21D;4016;50.758;7.150;2023-10-13T00:56:58;17.17;118.99
7942;HTU21D;4016;50.758;7.150;2023-10-13T01:02:04;17.16;118.99
7942;HTU21D;4016;50.758;7.150;2023-10-13T01:07:37;17.19;118.99
7942;HTU21D;4016;50.758;7.150;2023-10-13T01:12:38;17.15;118.99
7942;HTU21D;4016;50.758;7.150;2023-10-13T01:17:38;17.18;118.99
7942;HTU21D;4016;50.758;7.150;2023-10-13T01:22:39;17.22;118.99
7942;HTU21D;4016;50.758;7.150;2023-10-13T01:27:40;17.19;118.99
7942;HTU21D;4016;50.758;7.150;2023-10-13T01:32:40;17.18;118.99
7942;HTU21D;4016;50.758;7.150;2023-10-13T01:37:45;17.21;118.99
7942;HTU21D;4016;50.758;7.150;2023-10-13T01:42:46;17.26;118.99
7942;HTU21D;4016;50.758;7.150;2023-10-13T01:47:47;17.22;118.99
7942;HTU21D;4016;50.758;7.150;2023-10-13T01:52:52;17.19;118.99
7942;HTU21D;4016;50.758;7.150;2023-10-13T01:58:00;17.20;118.99
7942;HTU21D;4016;50.758;7.150;2023-10-13T02:03:00;17.21;118.99
7942;HTU21D;4016;50.758;7.150;2023-10-13T02:08:00;17.21;118.99
7942;HTU21D;4016;50.758;7.150;2023-10-13T02:13:02;17.20;118.99
7942;HTU21D;4016;50.758;7.150;2023-10-13T02:18:04;17.23;118.99
7942;HTU21D;4016;50.758;7.150;2023-10-13T02:23:04;17.16;118.99
7942;HTU21D;4016;50.758;7.150;2023-10-13T02:28:10;17.08;118.99
7942;HTU21D;4016;50.758;7.150;2023-10-13T02:33:14;17.04;118.99
7942;HTU21D;4016;50.758;7.150;2023-10-13T02:38:15;16.96;118.99
7942;HTU21D;4016;50.758;7.150;2023-10-13T02:43:16;16.98;118.99
7942;HTU21D;4016;50.758;7.150;2023-10-13T02:48:17;17.01;118.99
7942;HTU21D;4016;50.758;7.150;2023-10-13T02:53:17;17.02;118.99
7942;HTU21D;4016;50.758;7.150;2023-10-13T02:58:18;17.02;118.99
7942;HTU21D;4016;50.758;7.150;2023-10-13T03:03:19;17.15;118.99
7942;HTU21D;4016;50.758;7.150;2023-10-13T03:08:19;17.16;118.99
7942;HTU21D;4016;50.758;7.150;2023-10-13T03:13:26;17.19;118.99
7942;HTU21D;4016;50.758;7.150;2023-10-13T03:18:27;17.20;118.99
7942;HTU21D;4016;50.758;7.150;2023-10-13T03:23:33;17.28;118.99
7942;HTU21D;4016;50.758;7.150;2023-10-13T03:28:46;17.28;118.99
7942;HTU21D;4016;50.758;7.150;2023-10-13T03:33:52;17.26;118.99
7942;HTU21D;4016;50.758;7.150;2023-10-13T03:38:57;17.32;118.99
7942;HTU21D;4016;50.758;7.150;2023-10-13T03:43:57;17.41;118.99
7942;HTU21D;4016;50.758;7.150;2023-10-13T03:49:08;17.51;118.99
7942;HTU21D;4016;50.758;7.150;2023-10-13T03:54:13;17.54;118.99
7942;HTU21D;4016;50.758;7.150;2023-10-13T03:59:16;17.53;118.99
7942;HTU21D;4016;50.758;7.150;2023-10-13T04:04:17;17.56;118.99
7942;HTU21D;4016;50.758;7.150;2023-10-13T04:09:37;17.61;118.99
7942;HTU21D;4016;50.758;7.150;2023-10-13T04:14:42;17.66;118.99
7942;HTU21D;4016;50.758;7.150;2023-10-13T04:19:58;17.63;118.99
7942;HTU21D;4016;50.758;7.150;2023-10-13T04:25:07;17.69;118.99
7942;HTU21D;4016;50.758;7.150;2023-10-13T04:30:28;17.78;118.99
7942;HTU21D;4016;50.758;7.150;2023-10-13T04:35:39;17.73;118.99
7942;HTU21D;4016;50.758;7.150;2023-10-13T04:40:47;17.75;118.99
7942;HTU21D;4016;50.758;7.150;2023-10-13T04:46:01;17.72;118.99
7942;HTU21D;4016;50.758;7.150;2023-10-13T04:51:22;17.72;118.99
7942;HTU21D;4016;50.758;7.150;2023-10-13T04:56:40;17.74;118.99
7942;HTU21D;4016;50.758;7.150;2023-10-13T05:01:41;17.78;118.99
7942;HTU21D;4016;50.758;7.150;2023-10-13T05:07:01;17.76;118.99
7942;HTU21D;4016;50.758;7.150;2023-10-13T05:12:20;17.75;118.99
7942;HTU21D;4016;50.758;7.150;2023-10-13T05:17:39;17.79;118.99
7942;HTU21D;4016;50.758;7.150;2023-10-13T05:22:58;17.77;118.99
7942;HTU21D;4016;50.758;7.150;2023-10-13T05:28:17;17.83;118.99
7942;HTU21D;4016;50.758;7.150;2023-10-13T05:33:36;17.89;118.99
7942;HTU21D;4016;50.758;7.150;2023-10-13T05:38:54;17.89;118.99
7942;HTU21D;4016;50.758;7.150;2023-10-13T05:44:13;17.85;118.99
7942;HTU21D;4016;50.758;7.150;2023-10-13T05:49:32;17.91;118.99
7942;HTU21D;4016;50.758;7.150;2023-10-13T05:54:53;17.98;118.99
7942;HTU21D;4016;50.758;7.150;2023-10-13T06:00:12;17.98;118.99
7942;HTU21D;4016;50.758;7.150;2023-10-13T06:05:31;18.08;118.99
7942;HTU21D;4016;50.758;7.150;2023-10-13T06:11:03;18.11;118.99
7942;HTU21D;4016;50.758;7.150;2023-10-13T06:16:22;18.19;118.99
7942;HTU21D;4016;50.758;7.150;2023-10-13T06:21:42;18.27;118.99
7942;HTU21D;4016;50.758;7.150;2023-10-13T06:27:01;18.32;118.99
7942;HTU21D;4016;50.758;7.150;2023-10-13T06:32:20;18.41;118.99
7942;HTU21D;4016;50.758;7.150;2023-10-13T06:37:26;18.43;118.99
7942;HTU21D;4016;50.758;7.150;2023-10-13T06:42:30;18.49;118.99
7942;HTU21D;4016;50.758;7.150;2023-10-13T06:47:38;18.52;118.99
7942;HTU21D;4016;50.758;7.150;2023-10-13T06:52:43;18.61;118.99
7942;HTU21D;4016;50.758;7.150;2023-10-13T06:57:44;18.68;118.99
7942;HTU21D;4016;50.758;7.150;2023-10-13T07:02:48;18.77;118.99
7942;HTU21D;4016;50.758;7.150;2023-10-13T07:07:51;18.80;118.99
7942;HTU21D;4016;50.758;7.150;2023-10-13T07:12:58;18.83;118.99
7942;HTU21D;4016;50.758;7.150;2023-10-13T07:18:00;18.91;118.99
7942;HTU21D;4016;50.758;7.150;2023-10-13T07:23:04;18.96;118.99
7942;HTU21D;4016;50.758;7.150;2023-10-13T07:28:07;19.10;118.99
7942;HTU21D;4016;50.758;7.150;2023-10-13T07:33:10;19.24;118.99
7942;HTU21D;4016;50.758;7.150;2023-10-13T07:38:13;19.39;118.99
7942;HTU21D;4016;50.758;7.150;2023-10-13T07:43:13;19.60;118.99
7942;HTU21D;4016;50.758;7.150;2023-10-13T07:48:21;19.67;118.99
7942;HTU21D;4016;50.758;7.150;2023-10-13T07:53:21;19.73;118.99
7942;HTU21D;4016;50.758;7.150;2023-10-13T07:58:24;19.70;118.99
7942;HTU21D;4016;50.758;7.150;2023-10-13T08:03:25;19.84;118.99
7942;HTU21D;4016;50.758;7.150;2023-10-13T08:08:35;19.92;118.99
7942;HTU21D;4016;50.758;7.150;2023-10-13T08:13:38;20.00;118.99
7942;HTU21D;4016;50.758;7.150;2023-10-13T08:18:50;20.16;118.99
7942;HTU21D;4016;50.758;7.150;2023-10-13T08:23:51;20.25;118.99
7942;HTU21D;4016;50.758;7.150;2023-10-13T08:28:54;20.18;118.99
7942;HTU21D;4016;50.758;7.150;2023-10-13T08:33:54;20.18;118.99
7942;HTU21D;4016;50.758;7.150;2023-10-13T08:39:05;20.10;118.99
7942;HTU21D;4016;50.758;7.150;2023-10-13T08:44:26;20.02;118.99
7942;HTU21D;4016;50.758;7.150;2023-10-13T08:49:33;20.00;118.99
7942;HTU21D;4016;50.758;7.150;2023-10-13T08:54:40;20.00;118.99
7942;HTU21D;4016;50.758;7.150;2023-10-13T08:59:46;20.00;118.99
7942;HTU21D;4016;50.758;7.150;2023-10-13T09:04:55;20.02;118.99
7942;HTU21D;4016;50.758;7.150;2023-10-13T09:10:22;20.11;118.99
7942;HTU21D;4016;50.758;7.150;2023-10-13T09:15:44;20.34;111.77
7942;HTU21D;4016;50.758;7.150;2023-10-13T09:20:59;20.66;110.06
7942;HTU21D;4016;50.758;7.150;2023-10-13T09:26:21;20.87;107.27
7942;HTU21D;4016;50.758;7.150;2023-10-13T09:31:22;20.80;110.15
7942;HTU21D;4016;50.758;7.150;2023-10-13T09:36:26;20.95;107.93
7942;HTU21D;4016;50.758;7.150;2023-10-13T09:41:28;21.11;106.43
7942;HTU21D;4016;50.758;7.150;2023-10-13T09:46:33;21.38;103.45
7942;HTU21D;4016;50.758;7.150;2023-10-13T09:51:38;21.46;104.83
7942;HTU21D;4016;50.758;7.150;2023-10-13T09:56:50;21.69;103.22
7942;HTU21D;4016;50.758;7.150;2023-10-13T10:01:54;21.89;98.98
7942;HTU21D;4016;50.758;7.150;2023-10-13T10:06:59;22.16;97.09
7942;HTU21D;4016;50.758;7.150;2023-10-13T10:17:47;22.52;93.99
7942;HTU21D;4016;50.758;7.150;2023-10-13T10:22:59;22.54;94.95
7942;HTU21D;4016;50.758;7.150;2023-10-13T10:28:05;22.70;94.76
7942;HTU21D;4016;50.758;7.150;2023-10-13T10:33:06;22.70;94.85
7942;HTU21D;4016;50.758;7.150;2023-10-13T10:38:15;22.80;94.37
7942;HTU21D;4016;50.758;7.150;2023-10-13T10:43:23;22.99;90.94
7942;HTU21D;4016;50.758;7.150;2023-10-13T10:48:26;23.03;93.81
7942;HTU21D;4016;50.758;7.150;2023-10-13T10:53:34;23.31;89.93
7942;HTU21D;4016;50.758;7.150;2023-10-13T10:58:43;23.40;89.79
7942;HTU21D;4016;50.758;7.150;2023-10-13T11:03:57;23.56;90.21
7942;HTU21D;4016;50.758;7.150;2023-10-13T11:09:04;23.74;88.61
7942;HTU21D;4016;50.758;7.150;2023-10-13T11:14:04;23.88;88.51
7942;HTU21D;4016;50.758;7.150;2023-10-13T11:19:18;24.25;83.76
7942;HTU21D;4016;50.758;7.150;2023-10-13T11:24:25;24.26;85.58
7942;HTU21D;4016;50.758;7.150;2023-10-13T11:29:32;24.35;80.40
7942;HTU21D;4016;50.758;7.150;2023-10-13T11:34:35;24.39;80.20
7942;HTU21D;4016;50.758;7.150;2023-10-13T11:39:39;24.40;79.01
7942;HTU21D;4016;50.758;7.150;2023-10-13T11:44:43;24.23;80.83
7942;HTU21D;4016;50.758;7.150;2023-10-13T11:49:43;24.28;78.84
7942;HTU21D;4016;50.758;7.150;2023-10-13T11:54:43;24.26;78.63
7942;HTU21D;4016;50.758;7.150;2023-10-13T11:59:45;24.32;78.15
7942;HTU21D;4016;50.758;7.150;2023-10-13T12:04:53;24.30;78.43
7942;HTU21D;4016;50.758;7.150;2023-10-13T12:09:57;24.32;76.90
7942;HTU21D;4016;50.758;7.150;2023-10-13T12:14:58;24.42;79.17
7942;HTU21D;4016;50.758;7.150;2023-10-13T12:20:09;24.66;75.42
7942;HTU21D;4016;50.758;7.150;2023-10-13T12:25:10;24.91;74.83
7942;HTU21D;4016;50.758;7.150;2023-10-13T12:30:26;24.99;73.22
7942;HTU21D;4016;50.758;7.150;2023-10-13T12:35:45;25.02;73.05
7942;HTU21D;4016;50.758;7.150;2023-10-13T12:40:58;24.93;72.00
7942;HTU21D;4016;50.758;7.150;2023-10-13T12:46:17;24.80;72.80
7942;HTU21D;4016;50.758;7.150;2023-10-13T12:51:36;24.71;73.83
7942;HTU21D;4016;50.758;7.150;2023-10-13T12:56:36;24.73;73.48
7942;HTU21D;4016;50.758;7.150;2023-10-13T13:01:41;24.79;72.18
7942;HTU21D;4016;50.758;7.150;2023-10-13T13:06:45;24.78;71.56
7942;HTU21D;4016;50.758;7.150;2023-10-13T13:11:45;24.63;71.86
7942;HTU21D;4016;50.758;7.150;2023-10-13T13:16:49;24.46;72.96
7942;HTU21D;4016;50.758;7.150;2023-10-13T13:21:49;24.32;74.56
7942;HTU21D;4016;50.758;7.150;2023-10-13T13:26:49;24.26;74.87
7942;HTU21D;4016;50.758;7.150;2023-10-13T13:31:55;24.53;71.81
7942;HTU21D;4016;50.758;7.150;2023-10-13T13:36:57;24.56;70.68
7942;HTU21D;4016;50.758;7.150;2023-10-13T13:42:00;24.59;69.96
7942;HTU21D;4016;50.758;7.150;2023-10-13T13:47:01;24.57;71.78
7942;HTU21D;4016;50.758;7.150;2023-10-13T13:52:12;24.57;71.45
7942;HTU21D;4016;50.758;7.150;2023-10-13T13:57:18;24.42;71.43
7942;HTU21D;4016;50.758;7.150;2023-10-13T14:02:18;24.32;72.35
7942;HTU21D;4016;50.758;7.150;2023-10-13T14:07:21;24.08;73.70
7942;HTU21D;4016;50.758;7.150;2023-10-13T14:12:24;24.21;70.53
7942;HTU21D;4016;50.758;7.150;2023-10-13T14:17:36;24.20;70.86
7942;HTU21D;4016;50.758;7.150;2023-10-13T14:22:36;24.03;73.53
7942;HTU21D;4016;50.758;7.150;2023-10-13T14:27:37;23.92;72.22
7942;HTU21D;4016;50.758;7.150;2023-10-13T14:32:37;23.92;71.38
7942;HTU21D;4016;50.758;7.150;2023-10-13T14:37:40;23.88;71.75
7942;HTU21D;4016;50.758;7.150;2023-10-13T14:42:41;23.84;71.93
7942;HTU21D;4016;50.758;7.150;2023-10-13T14:47:45;23.97;70.30
7942;HTU21D;4016;50.758;7.150;2023-10-13T14:52:48;24.01;70.47
7942;HTU21D;4016;50.758;7.150;2023-10-13T14:57:49;23.98;69.10
7942;HTU21D;4016;50.758;7.150;2023-10-13T15:02:54;23.83;70.98
7942;HTU21D;4016;50.758;7.150;2023-10-13T15:07:55;23.77;71.84
7942;HTU21D;4016;50.758;7.150;2023-10-13T15:12:56;23.84;71.06
7942;HTU21D;4016;50.758;7.150;2023-10-13T15:17:59;23.84;70.45
7942;HTU21D;4016;50.758;7.150;2023-10-13T15:23:01;23.72;71.60
7942;HTU21D;4016;50.758;7.150;2023-10-13T15:28:01;23.56;72.09
7942;HTU21D;4016;50.758;7.150;2023-10-13T15:33:08;23.39;73.68
7942;HTU21D;4016;50.758;7.150;2023-10-13T15:38:10;23.40;72.22
7942;HTU21D;4016;50.758;7.150;2023-10-13T15:43:12;23.38;72.25
7942;HTU21D;4016;50.758;7.150;2023-10-13T15:48:13;23.22;73.75
7942;HTU21D;4016;50.758;7.150;2023-10-13T15:53:16;23.10;74.55
7942;HTU21D;4016;50.758;7.150;2023-10-13T15:58:16;23.12;74.16
7942;HTU21D;4016;50.758;7.150;2023-10-13T16:03:16;22.99;76.06
7942;HTU21D;4016;50.758;7.150;2023-10-13T16:08:17;23.11;74.21
7942;HTU21D;4016;50.758;7.150;2023-10-13T16:13:18;22.94;76.01
7942;HTU21D;4016;50.758;7.150;2023-10-13T16:18:20;22.85;76.94
7942;HTU21D;4016;50.758;7.150;2023-10-13T16:23:22;22.76;77.60
7942;HTU21D;4016;50.758;7.150;2023-10-13T16:28:24;22.56;81.52
7942;HTU21D;4016;50.758;7.150;2023-10-13T16:33:24;22.42;83.62
7942;HTU21D;4016;50.758;7.150;2023-10-13T16:38:25;22.49;81.67
7942;HTU21D;4016;50.758;7.150;2023-10-13T16:43:25;22.38;81.46
7942;HTU21D;4016;50.758;7.150;2023-10-13T16:48:25;22.22;83.51
7942;HTU21D;4016;50.758;7.150;2023-10-13T16:53:27;22.10;86.03
7942;HTU21D;4016;50.758;7.150;2023-10-13T16:58:28;22.08;85.31
7942;HTU21D;4016;50.758;7.150;2023-10-13T17:03:30;22.33;81.73
7942;HTU21D;4016;50.758;7.150;2023-10-13T17:08:31;22.12;84.77
7942;HTU21D;4016;50.758;7.150;2023-10-13T17:13:31;22.04;86.09
7942;HTU21D;4016;50.758;7.150;2023-10-13T17:18:33;21.99;86.38
7942;HTU21D;4016;50.758;7.150;2023-10-13T17:23:33;21.93;85.95
7942;HTU21D;4016;50.758;7.150;2023-10-13T17:28:34;21.96;85.85
7942;HTU21D;4016;50.758;7.150;2023-10-13T17:33:38;21.94;86.38
7942;HTU21D;4016;50.758;7.150;2023-10-13T17:38:41;21.81;88.61
7942;HTU21D;4016;50.758;7.150;2023-10-13T17:43:42;21.62;90.53
7942;HTU21D;4016;50.758;7.150;2023-10-13T17:48:42;21.60;91.27
7942;HTU21D;4016;50.758;7.150;2023-10-13T17:53:45;21.52;92.20
7942;HTU21D;4016;50.758;7.150;2023-10-13T17:58:46;21.52;92.45
7942;HTU21D;4016;50.758;7.150;2023-10-13T18:03:51;21.44;93.23
7942;HTU21D;4016;50.758;7.150;2023-10-13T18:08:53;21.45;93.17
7942;HTU21D;4016;50.758;7.150;2023-10-13T18:13:56;21.37;94.72
7942;HTU21D;4016;50.758;7.150;2023-10-13T18:18:56;21.39;94.01
7942;HTU21D;4016;50.758;7.150;2023-10-13T18:23:58;21.53;93.26
7942;HTU21D;4016;50.758;7.150;2023-10-13T18:28:58;21.62;92.92
7942;HTU21D;4016;50.758;7.150;2023-10-13T18:33:59;21.46;95.47
7942;HTU21D;4016;50.758;7.150;2023-10-13T18:39:00;21.38;95.79
7942;HTU21D;4016;50.758;7.150;2023-10-13T18:44:00;21.34;96.62
7942;HTU21D;4016;50.758;7.150;2023-10-13T18:49:01;21.38;95.61
7942;HTU21D;4016;50.758;7.150;2023-10-13T18:54:02;21.22;97.50
7942;HTU21D;4016;50.758;7.150;2023-10-13T18:59:02;21.13;98.42
7942;HTU21D;4016;50.758;7.150;2023-10-13T19:04:04;21.18;96.39
7942;HTU21D;4016;50.758;7.150;2023-10-13T19:09:05;21.11;97.34
7942;HTU21D;4016;50.758;7.150;2023-10-13T19:14:06;21.16;95.96
7942;HTU21D;4016;50.758;7.150;2023-10-13T19:19:10;21.18;95.30
7942;HTU21D;4016;50.758;7.150;2023-10-13T19:24:10;21.20;94.43
7942;HTU21D;4016;50.758;7.150;2023-10-13T19:29:11;21.29;93.59
7942;HTU21D;4016;50.758;7.150;2023-10-13T19:34:12;21.30;93.16
7942;HTU21D;4016;50.758;7.150;2023-10-13T19:39:17;21.29;91.30
7942;HTU21D;4016;50.758;7.150;2023-10-13T19:44:25;21.31;90.41
7942;HTU21D;4016;50.758;7.150;2023-10-13T19:49:26;21.53;87.20
7942;HTU21D;4016;50.758;7.150;2023-10-13T19:54:26;21.96;82.55
7942;HTU21D;4016;50.758;7.150;2023-10-13T19:59:26;22.23;79.14
7942;HTU21D;4016;50.758;7.150;2023-10-13T20:04:28;22.06;78.99
7942;HTU21D;4016;50.758;7.150;2023-10-13T20:09:29;22.35;76.28
7942;HTU21D;4016;50.758;7.150;2023-10-13T20:14:29;22.55;72.19
7942;HTU21D;4016;50.758;7.150;2023-10-13T20:19:32;22.67;72.23
7942;HTU21D;4016;50.758;7.150;2023-10-13T20:24:32;22.88;69.23
7942;HTU21D;4016;50.758;7.150;2023-10-13T20:29:33;22.95;68.21
7942;HTU21D;4016;50.758;7.150;2023-10-13T20:34:33;23.01;67.89
7942;HTU21D;4016;50.758;7.150;2023-10-13T20:39:34;22.96;68.37
7942;HTU21D;4016;50.758;7.150;2023-10-13T20:44:34;22.78;69.79
7942;HTU21D;4016;50.758;7.150;2023-10-13T20:49:37;22.90;68.84
7942;HTU21D;4016;50.758;7.150;2023-10-13T20:54:43;22.91;69.00
7942;HTU21D;4016;50.758;7.150;2023-10-13T20:59:45;22.90;70.07
7942;HTU21D;4016;50.758;7.150;2023-10-13T21:04:46;22.92;70.48
7942;HTU21D;4016;50.758;7.150;2023-10-13T21:09:46;22.80;72.15
7942;HTU21D;4016;50.758;7.150;2023-10-13T21:14:46;22.81;72.39
7942;HTU21D;4016;50.758;7.150;2023-10-13T21:19:48;22.76;72.99
7942;HTU21D;4016;50.758;7.150;2023-10-13T21:24:49;22.68;74.90
7942;HTU21D;4016;50.758;7.150;2023-10-13T21:29:50;22.58;76.42
7942;HTU21D;4016;50.758;7.150;2023-10-13T21:34:50;22.39;79.91
7942;HTU21D;4016;50.758;7.150;2023-10-13T21:39:51;22.33;81.15
7942;HTU21D;4016;50.758;7.150;2023-10-13T21:44:52;22.27;82.46
7942;HTU21D;4016;50.758;7.150;2023-10-13T21:49:55;22.06;85.80
7942;HTU21D;4016;50.758;7.150;2023-10-13T21:54:58;21.89;90.40
7942;HTU21D;4016;50.758;7.150;2023-10-13T21:59:58;21.57;96.10
7942;HTU21D;4016;50.758;7.150;2023-10-13T22:04:59;21.29;99.53
7942;HTU21D;4016;50.758;7.150;2023-10-13T22:09:59;21.06;103.37
7942;HTU21D;4016;50.758;7.150;2023-10-13T22:14:59;20.85;105.79
7942;HTU21D;4016;50.758;7.150;2023-10-13T22:20:03;20.60;106.58
7942;HTU21D;4016;50.758;7.150;2023-10-13T22:25:05;20.60;106.47
7942;HTU21D;4016;50.758;7.150;2023-10-13T22:30:17;20.53;107.43
7942;HTU21D;4016;50.758;7.150;2023-10-13T22:35:23;20.44;108.38
7942;HTU21D;4016;50.758;7.150;2023-10-13T22:40:23;20.34;108.77
7942;HTU21D;4016;50.758;7.150;2023-10-13T22:45:24;20.33;108.55
7942;HTU21D;4016;50.758;7.150;2023-10-13T22:50:25;20.34;106.65
7942;HTU21D;4016;50.758;7.150;2023-10-13T22:55:25;20.29;105.67
7942;HTU21D;4016;50.758;7.150;2023-10-13T23:00:27;20.21;104.03
7942;HTU21D;4016;50.758;7.150;2023-10-13T23:05:46;20.20;103.47
7942;HTU21D;4016;50.758;7.150;2023-10-13T23:10:55;20.46;100.18
7942;HTU21D;4016;50.758;7.150;2023-10-13T23:15:55;20.42;101.25
7942;HTU21D;4016;50.758;7.150;2023-10-13T23:20:58;20.42;101.62
7942;HTU21D;4016;50.758;7.150;2023-10-13T23:26:06;20.18;103.90
7942;HTU21D;4016;50.758;7.150;2023-10-13T23:31:07;20.27;103.66
7942;HTU21D;4016;50.758;7.150;2023-10-13T23:36:09;20.16;104.41
7942;HTU21D;4016;50.758;7.150;2023-10-13T23:41:11;20.06;105.32
7942;HTU21D;4016;50.758;7.150;2023-10-13T23:46:14;20.20;104.51
7942;HTU21D;4016;50.758;7.150;2023-10-13T23:51:15;20.11;105.41
7942;HTU21D;4016;50.758;7.150;2023-10-13T23:56:20;20.17;104.89
